createdAt,value
2022-11-17T00:00:37.224Z,34.53
2022-11-17T00:03:05.427Z,43.73
2022-11-17T00:05:38.156Z,35.47
2022-11-17T00:08:06.446Z,37.57
2022-11-17T00:10:35.560Z,38.40
2022-11-17T00:13:20.979Z,34.47
2022-11-17T00:15:49.124Z,38.23
2022-11-17T00:18:34.548Z,42.60
2022-11-17T00:21:21.786Z,38.43
2022-11-17T00:23:50.699Z,37.53
2022-11-17T00:26:21.004Z,37.03
2022-11-17T00:28:49.450Z,38.40
2022-11-17T00:31:34.846Z,39.83
2022-11-17T00:34:05.926Z,40.17
2022-11-17T00:36:37.700Z,41.13
2022-11-17T00:39:06.479Z,36.70
2022-11-17T00:41:34.859Z,41.20
2022-11-17T00:44:03.151Z,33.60
2022-11-17T00:46:31.569Z,43.40
2022-11-17T00:48:59.998Z,39.40
2022-11-17T00:51:28.329Z,33.60
2022-11-17T00:53:58.310Z,36.07
2022-11-17T00:56:26.734Z,46.13
2022-11-17T00:58:55.513Z,36.07
2022-11-17T01:01:24.831Z,32.90
2022-11-17T01:04:03.007Z,33.03
2022-11-17T01:06:33.843Z,34.97
2022-11-17T01:09:05.653Z,35.40
2022-11-17T01:11:34.239Z,32.63
2022-11-17T01:14:03.091Z,34.37
2022-11-17T01:16:32.126Z,36.03
2022-11-17T01:19:02.105Z,37.53
2022-11-17T01:21:31.833Z,30.27
2022-11-17T01:24:01.914Z,43.40
2022-11-17T01:26:33.917Z,31.20
2022-11-17T01:29:03.157Z,34.40
2022-11-17T01:31:33.991Z,27.23
2022-11-17T01:34:02.751Z,34.40
2022-11-17T01:36:52.401Z,28.03
2022-11-17T01:39:20.783Z,32.33
2022-11-17T01:41:50.331Z,31.93
2022-11-17T01:44:53.882Z,29.17
2022-11-17T01:47:27.099Z,37.53
2022-11-17T01:49:57.942Z,33.73
2022-11-17T01:52:29.254Z,30.30
2022-11-17T01:55:00.286Z,31.97
2022-11-17T01:57:34.370Z,28.17
2022-11-17T02:00:05.677Z,30.57
2022-11-17T02:02:35.094Z,33.03
2022-11-17T02:05:13.632Z,32.43
2022-11-17T02:07:44.331Z,35.13
2022-11-17T02:10:12.719Z,35.20
2022-11-17T02:12:42.939Z,53.43
2022-11-17T02:15:11.671Z,29.43
2022-11-17T02:17:41.998Z,30.47
2022-11-17T02:20:13.596Z,29.63
2022-11-17T02:23:07.940Z,28.93
2022-11-17T02:25:58.820Z,29.40
2022-11-17T02:28:31.221Z,26.67
2022-11-17T02:31:11.156Z,31.20
2022-11-17T02:33:54.090Z,28.83
2022-11-17T02:36:30.736Z,30.43
2022-11-17T02:39:07.089Z,26.80
2022-11-17T02:41:45.117Z,32.47
2022-11-17T02:44:22.021Z,28.60
2022-11-17T02:46:56.027Z,31.13
2022-11-17T02:49:28.165Z,32.80
2022-11-17T02:51:58.741Z,41.97
2022-11-17T02:54:30.637Z,40.10
2022-11-17T02:56:59.124Z,32.73
2022-11-17T02:59:35.596Z,37.93
2022-11-17T03:02:28.517Z,29.57
2022-11-17T03:05:08.156Z,29.43
2022-11-17T03:07:50.268Z,27.10
2022-11-17T03:10:22.033Z,31.53
2022-11-17T03:12:56.511Z,28.20
2022-11-17T03:15:33.819Z,33.90
2022-11-17T03:18:08.965Z,28.27
2022-11-17T03:20:43.722Z,29.17
2022-11-17T03:23:15.512Z,31.20
2022-11-17T03:25:51.503Z,30.23
2022-11-17T03:28:22.910Z,29.67
2022-11-17T03:30:55.036Z,30.33
2022-11-17T03:33:25.469Z,31.40
2022-11-17T03:35:59.926Z,28.17
2022-11-17T03:38:33.506Z,30.50
2022-11-17T03:41:04.264Z,30.47
2022-11-17T03:43:33.404Z,33.57
2022-11-17T03:46:07.132Z,36.90
2022-11-17T03:48:37.415Z,30.20
2022-11-17T03:51:09.319Z,35.83
2022-11-17T03:53:38.248Z,33.23
2022-11-17T03:56:16.339Z,33.90
2022-11-17T03:58:54.574Z,33.33
2022-11-17T04:01:24.301Z,31.90
2022-11-17T04:03:53.441Z,35.40
2022-11-17T04:06:21.609Z,33.03
2022-11-17T04:08:49.835Z,34.20
2022-11-17T04:11:35.186Z,36.83
2022-11-17T04:14:20.889Z,34.07
2022-11-17T04:16:50.363Z,32.20
2022-11-17T04:19:18.443Z,31.80
2022-11-17T04:21:46.547Z,32.20
2022-11-17T04:24:14.652Z,38.57
2022-11-17T04:27:00.095Z,35.30
2022-11-17T04:29:28.721Z,35.50
2022-11-17T04:31:58.339Z,36.47
2022-11-17T04:34:26.584Z,32.47
2022-11-17T04:36:54.666Z,35.53
2022-11-17T04:39:22.722Z,36.60
2022-11-17T04:41:57.584Z,29.30
2022-11-17T04:44:27.527Z,32.27
2022-11-17T04:46:58.268Z,37.20
2022-11-17T04:49:27.787Z,34.13
2022-11-17T04:51:56.021Z,35.10
2022-11-17T04:54:25.791Z,37.10
2022-11-17T04:56:54.731Z,39.27
2022-11-17T04:59:23.166Z,37.80
2022-11-17T05:01:51.630Z,33.30
2022-11-17T05:04:36.163Z,31.73
2022-11-17T05:07:04.682Z,33.40
2022-11-17T05:09:33.023Z,31.57
2022-11-17T05:12:18.445Z,33.23
2022-11-17T05:14:47.797Z,34.83
2022-11-17T05:17:14.907Z,31.97
2022-11-17T05:19:45.579Z,36.40
2022-11-17T05:22:33.662Z,36.37
2022-11-17T05:25:01.997Z,34.27
2022-11-17T05:27:30.467Z,38.23
2022-11-17T05:29:58.628Z,34.37
2022-11-17T05:32:26.699Z,35.70
2022-11-17T05:34:56.133Z,33.80
2022-11-17T05:37:24.343Z,35.37
2022-11-17T05:39:52.396Z,40.20
2022-11-17T05:42:20.440Z,36.53
2022-11-17T05:44:49.097Z,37.37
2022-11-17T05:47:17.240Z,38.50
2022-11-17T05:49:45.307Z,48.83
2022-11-17T05:52:14.777Z,40.40
2022-11-17T05:54:42.890Z,33.93
2022-11-17T05:57:14.449Z,46.07
2022-11-17T05:59:47.865Z,36.40
2022-11-17T06:02:21.154Z,38.63
2022-11-17T06:04:51.296Z,44.93
2022-11-17T06:07:21.314Z,36.63
2022-11-17T06:09:52.308Z,32.20
2022-11-17T06:12:20.354Z,28.87
2022-11-17T06:14:49.513Z,29.70
2022-11-17T06:17:22.747Z,36.03
2022-11-17T06:19:56.406Z,28.10
2022-11-17T06:22:26.728Z,36.50
2022-11-17T06:24:55.694Z,30.40
2022-11-17T06:27:25.616Z,25.60
2022-11-17T06:29:55.185Z,24.67
2022-11-17T06:32:23.595Z,23.03
2022-11-17T06:34:56.180Z,21.50
2022-11-17T06:37:26.328Z,26.00
2022-11-17T06:39:54.736Z,23.03
2022-11-17T06:42:44.027Z,23.90
2022-11-17T06:45:13.213Z,21.57
2022-11-17T06:47:41.303Z,22.07
2022-11-17T06:50:10.236Z,20.10
2022-11-17T06:52:40.187Z,23.40
2022-11-17T06:55:09.577Z,20.63
2022-11-17T06:57:37.688Z,18.13
2022-11-17T07:00:07.365Z,18.50
2022-11-17T07:02:36.767Z,17.67
2022-11-17T07:05:05.196Z,18.53
2022-11-17T07:07:33.593Z,15.67
2022-11-17T07:10:03.270Z,17.63
2022-11-17T07:12:31.368Z,19.60
2022-11-17T07:14:59.589Z,20.23
2022-11-17T07:17:29.153Z,22.90
2022-11-17T07:19:57.281Z,19.97
2022-11-17T07:22:25.360Z,22.17
2022-11-17T07:24:53.535Z,17.43
2022-11-17T07:27:23.023Z,23.50
2022-11-17T07:29:53.917Z,20.20
2022-11-17T07:32:22.224Z,21.03
2022-11-17T07:34:50.345Z,29.73
2022-11-17T07:37:19.543Z,23.00
2022-11-17T07:39:47.633Z,30.10
2022-11-17T07:42:15.716Z,24.77
2022-11-17T07:44:45.196Z,22.00
2022-11-17T07:47:13.431Z,20.67
2022-11-17T07:49:41.527Z,15.93
2022-11-17T07:52:09.633Z,18.13
2022-11-17T07:54:37.729Z,24.80
2022-11-17T07:57:05.892Z,18.67
2022-11-17T07:59:34.426Z,37.43
2022-11-17T08:02:04.002Z,16.77
2022-11-17T08:04:32.105Z,18.20
2022-11-17T08:07:00.324Z,17.00
2022-11-17T08:09:28.433Z,19.83
2022-11-17T08:11:57.658Z,27.63
2022-11-17T08:14:25.744Z,15.47
2022-11-17T08:16:53.889Z,14.53
2022-11-17T08:19:23.344Z,13.07
2022-11-17T08:21:51.773Z,21.40
2022-11-17T08:24:19.872Z,15.17
2022-11-17T08:26:47.975Z,18.47
2022-11-17T08:29:16.187Z,30.47
2022-11-17T08:31:46.327Z,13.93
2022-11-17T08:34:14.771Z,10.73
2022-11-17T08:36:44.322Z,15.57
2022-11-17T08:39:12.583Z,22.07
2022-11-17T08:41:40.684Z,12.07
2022-11-17T08:44:08.866Z,20.70
2022-11-17T08:46:37.071Z,13.67
2022-11-17T08:49:05.162Z,23.53
2022-11-17T08:51:33.288Z,13.03
2022-11-17T08:54:02.882Z,13.27
2022-11-17T08:56:31.052Z,14.43
2022-11-17T08:58:59.283Z,15.90
2022-11-17T09:01:27.474Z,15.30
2022-11-17T09:03:55.621Z,15.03
2022-11-17T09:06:23.733Z,14.63
2022-11-17T09:08:55.035Z,14.90
2022-11-17T09:11:25.243Z,19.13
2022-11-17T09:13:53.310Z,15.20
2022-11-17T09:16:24.070Z,19.60
2022-11-17T09:18:57.041Z,13.83
2022-11-17T09:21:26.257Z,14.10
2022-11-17T09:23:55.361Z,17.13
2022-11-17T09:26:25.181Z,14.30
2022-11-17T09:28:53.436Z,12.23
2022-11-17T09:31:23.405Z,13.10
2022-11-17T09:33:51.635Z,12.50
2022-11-17T09:36:19.761Z,16.57
2022-11-17T09:38:48.226Z,13.63
2022-11-17T09:41:40.115Z,16.40
2022-11-17T09:44:19.519Z,15.00
2022-11-17T09:46:57.406Z,13.37
2022-11-17T09:49:36.793Z,10.47
2022-11-17T09:52:15.357Z,11.13
2022-11-17T09:54:48.529Z,14.00
2022-11-17T09:57:23.987Z,8.63
2022-11-17T10:00:05.103Z,17.40
2022-11-17T10:02:33.578Z,11.00
2022-11-17T10:05:02.005Z,15.50
2022-11-17T10:07:32.861Z,12.60
2022-11-17T10:10:04.652Z,11.43
2022-11-17T10:12:41.997Z,15.80
2022-11-17T10:15:23.293Z,15.30
2022-11-17T10:17:52.177Z,11.87
2022-11-17T10:20:20.449Z,17.43
2022-11-17T10:22:49.786Z,17.07
2022-11-17T10:25:38.847Z,22.10
2022-11-17T10:28:28.274Z,13.50
2022-11-17T10:31:00.245Z,14.30
2022-11-17T10:33:38.591Z,16.90
2022-11-17T10:36:15.585Z,28.27
2022-11-17T10:38:46.381Z,25.73
2022-11-17T10:41:19.010Z,20.77
2022-11-17T10:43:58.084Z,15.67
2022-11-17T10:46:27.204Z,21.63
2022-11-17T10:49:00.733Z,12.00
2022-11-17T10:51:29.943Z,14.73
2022-11-17T10:54:07.477Z,15.70
2022-11-17T10:56:41.714Z,14.53
2022-11-17T10:59:21.300Z,12.40
2022-11-17T11:01:52.128Z,23.67
2022-11-17T11:04:32.522Z,24.97
2022-11-17T11:07:09.699Z,28.27
2022-11-17T11:09:42.713Z,11.10
2022-11-17T11:12:16.433Z,23.23
2022-11-17T11:14:52.332Z,42.57
2022-11-17T11:17:21.093Z,22.43
2022-11-17T11:19:53.752Z,12.53
2022-11-17T11:22:38.069Z,17.80
2022-11-17T11:25:26.322Z,15.53
2022-11-17T11:28:05.971Z,17.60
2022-11-17T11:30:42.495Z,11.03
2022-11-17T11:33:34.457Z,10.60
2022-11-17T11:36:15.374Z,14.57
2022-11-17T11:38:56.277Z,11.13
2022-11-17T11:41:50.117Z,14.97
2022-11-17T11:44:31.746Z,13.63
2022-11-17T11:47:12.501Z,16.57
2022-11-17T11:49:46.999Z,14.13
2022-11-17T11:52:20.887Z,14.10
2022-11-17T11:54:55.409Z,14.33
2022-11-17T11:57:30.204Z,15.50
2022-11-17T12:00:04.420Z,14.37
2022-11-17T12:02:43.662Z,13.37
2022-11-17T12:05:22.972Z,14.27
2022-11-17T12:07:54.270Z,15.47
2022-11-17T12:10:30.087Z,13.17
2022-11-17T12:12:59.325Z,12.33
2022-11-17T12:15:39.362Z,16.57
2022-11-17T12:18:14.786Z,16.27
2022-11-17T12:20:56.429Z,14.93
2022-11-17T12:23:33.811Z,17.70
2022-11-17T12:26:03.167Z,19.70
2022-11-17T12:28:35.825Z,20.47
2022-11-17T12:31:10.185Z,17.03
2022-11-17T12:34:12.334Z,17.40
2022-11-17T12:36:42.057Z,18.07
2022-11-17T12:39:48.428Z,19.70
2022-11-17T12:42:16.542Z,16.30
2022-11-17T12:44:52.059Z,14.00
2022-11-17T12:47:22.212Z,25.63
2022-11-17T12:50:05.680Z,13.10
2022-11-17T12:52:47.177Z,18.03
2022-11-17T12:55:22.625Z,10.80
2022-11-17T12:57:59.315Z,17.00
2022-11-17T13:00:30.254Z,20.10
2022-11-17T13:03:02.967Z,13.60
2022-11-17T13:05:31.534Z,14.97
2022-11-17T13:08:22.512Z,14.53
2022-11-17T13:10:51.703Z,12.00
2022-11-17T13:13:21.698Z,13.43
2022-11-17T13:15:52.478Z,14.83
2022-11-17T13:18:31.111Z,12.73
2022-11-17T13:20:59.830Z,11.70
2022-11-17T13:23:30.589Z,11.73
2022-11-17T13:26:12.859Z,11.10
2022-11-17T13:28:40.948Z,21.90
2022-11-17T13:31:18.106Z,17.50
2022-11-17T13:33:57.050Z,18.27
2022-11-17T13:36:27.457Z,11.03
2022-11-17T13:39:00.479Z,14.33
2022-11-17T13:41:33.663Z,14.27
2022-11-17T13:44:02.446Z,13.60
2022-11-17T13:46:30.562Z,11.63
2022-11-17T13:48:58.668Z,12.63
2022-11-17T13:51:38.612Z,12.77
2022-11-17T13:54:17.921Z,19.80
2022-11-17T13:56:52.762Z,13.87
2022-11-17T13:59:26.252Z,18.87
2022-11-17T14:02:24.423Z,11.00
2022-11-17T14:05:07.858Z,14.70
2022-11-17T14:07:37.762Z,12.90
2022-11-17T14:10:29.436Z,12.57
2022-11-17T14:13:22.099Z,12.90
2022-11-17T14:15:59.462Z,15.93
2022-11-17T14:18:30.799Z,13.37
2022-11-17T14:21:11.688Z,18.17
2022-11-17T14:23:39.988Z,14.93
2022-11-17T14:26:24.389Z,15.37
2022-11-17T14:28:53.298Z,15.27
2022-11-17T14:31:21.401Z,17.40
2022-11-17T14:33:50.562Z,22.30
2022-11-17T14:36:19.244Z,19.17
2022-11-17T14:38:47.993Z,24.60
2022-11-17T14:41:19.039Z,21.77
2022-11-17T14:43:47.950Z,29.03
2022-11-17T14:46:21.202Z,26.63
2022-11-17T14:48:49.281Z,22.90
2022-11-17T14:51:17.976Z,31.67
2022-11-17T14:53:46.724Z,26.20
2022-11-17T14:56:18.970Z,37.33
2022-11-17T14:58:47.802Z,34.57
2022-11-17T15:01:18.859Z,29.83
2022-11-17T15:03:47.606Z,32.80
2022-11-17T15:06:19.891Z,40.60
2022-11-17T15:08:49.140Z,29.10
2022-11-17T15:11:19.394Z,36.87
2022-11-17T15:13:47.647Z,23.87
2022-11-17T15:16:15.811Z,22.03
2022-11-17T15:18:46.710Z,20.53
2022-11-17T15:21:16.106Z,21.33
2022-11-17T15:23:45.143Z,14.13
2022-11-17T15:26:15.680Z,11.33
2022-11-17T15:28:45.303Z,12.83
2022-11-17T15:31:14.932Z,13.03
2022-11-17T15:33:43.784Z,12.40
2022-11-17T15:36:13.745Z,8.70
2022-11-17T15:38:45.356Z,14.33
2022-11-17T15:41:14.523Z,10.50
2022-11-17T15:43:45.806Z,9.77
2022-11-17T15:46:15.411Z,8.93
2022-11-17T15:48:46.449Z,15.80
2022-11-17T15:51:16.214Z,9.13
2022-11-17T15:53:46.440Z,8.60
2022-11-17T15:56:16.742Z,15.30
2022-11-17T15:58:47.285Z,10.00
2022-11-17T16:01:17.247Z,33.43
2022-11-17T16:03:46.508Z,10.70
2022-11-17T16:06:14.628Z,11.93
2022-11-17T16:08:43.118Z,9.03
2022-11-17T16:11:12.081Z,14.77
2022-11-17T16:13:40.401Z,8.60
2022-11-17T16:16:15.404Z,10.50
2022-11-17T16:18:43.654Z,11.50
2022-11-17T16:21:13.953Z,6.40
2022-11-17T16:23:43.184Z,7.10
2022-11-17T16:26:14.690Z,7.20
2022-11-17T16:28:43.644Z,12.37
2022-11-17T16:31:18.513Z,9.13
2022-11-17T16:33:50.514Z,8.30
2022-11-17T16:36:19.328Z,12.20
2022-11-17T16:39:00.416Z,8.80
2022-11-17T16:41:31.958Z,9.23
2022-11-17T16:44:00.543Z,13.53
2022-11-17T16:46:32.334Z,20.53
2022-11-17T16:49:03.286Z,13.03
2022-11-17T16:51:31.554Z,8.50
2022-11-17T16:54:02.108Z,9.03
2022-11-17T16:56:30.569Z,9.60
2022-11-17T16:58:59.824Z,10.30
2022-11-17T17:01:31.978Z,10.43
2022-11-17T17:04:01.747Z,10.37
2022-11-17T17:06:30.523Z,11.53
2022-11-17T17:09:00.254Z,7.57
2022-11-17T17:11:31.483Z,12.57
2022-11-17T17:14:00.338Z,9.93
2022-11-17T17:16:30.774Z,9.43
2022-11-17T17:19:00.441Z,9.00
2022-11-17T17:21:29.599Z,19.47
2022-11-17T17:23:58.547Z,13.00
2022-11-17T17:26:28.561Z,21.83
2022-11-17T17:28:58.280Z,11.57
2022-11-17T17:31:27.778Z,11.77
2022-11-17T17:33:57.642Z,14.13
2022-11-17T17:36:26.413Z,11.30
2022-11-17T17:38:56.449Z,12.23
2022-11-17T17:41:26.372Z,10.30
2022-11-17T17:43:59.108Z,11.53
2022-11-17T17:46:29.752Z,13.33
2022-11-17T17:48:59.859Z,11.07
2022-11-17T17:51:29.724Z,9.40
2022-11-17T17:54:01.109Z,12.93
2022-11-17T17:56:30.595Z,11.40
2022-11-17T17:58:59.249Z,15.70
2022-11-17T18:01:28.942Z,13.30
2022-11-17T18:04:04.463Z,11.50
2022-11-17T18:06:36.375Z,15.50
2022-11-17T18:09:04.913Z,14.63
2022-11-17T18:11:33.942Z,12.33
2022-11-17T18:14:02.344Z,16.40
2022-11-17T18:16:32.605Z,17.73
2022-11-17T18:19:04.059Z,16.50
2022-11-17T18:21:32.601Z,14.70
2022-11-17T18:24:02.140Z,19.43
2022-11-17T18:26:31.782Z,20.77
2022-11-17T18:29:01.585Z,14.67
2022-11-17T18:31:32.381Z,13.70
2022-11-17T18:34:03.714Z,13.00
2022-11-17T18:36:32.489Z,10.47
2022-11-17T18:39:00.770Z,8.50
2022-11-17T18:41:31.067Z,13.80
2022-11-17T18:43:59.539Z,9.60
2022-11-17T18:46:30.454Z,9.93
2022-11-17T18:48:59.346Z,8.83
2022-11-17T18:51:30.808Z,7.37
2022-11-17T18:54:01.492Z,7.07
2022-11-17T18:56:33.405Z,6.67
2022-11-17T18:59:02.213Z,7.47
2022-11-17T19:01:31.889Z,7.07
2022-11-17T19:04:01.596Z,8.43
2022-11-17T19:06:32.952Z,7.63
2022-11-17T19:09:01.884Z,7.07
2022-11-17T19:11:33.077Z,7.10
2022-11-17T19:14:03.242Z,5.87
2022-11-17T19:16:32.098Z,6.80
2022-11-17T19:19:00.875Z,8.13
2022-11-17T19:21:33.901Z,6.23
2022-11-17T19:24:04.515Z,6.50
2022-11-17T19:26:34.440Z,4.97
2022-11-17T19:29:04.754Z,5.00
2022-11-17T19:31:33.833Z,5.90
2022-11-17T19:34:02.061Z,4.30
2022-11-17T19:36:33.486Z,4.43
2022-11-17T19:39:03.503Z,4.13
2022-11-17T19:41:34.563Z,4.70
2022-11-17T19:44:05.253Z,3.40
2022-11-17T19:46:34.338Z,4.67
2022-11-17T19:49:02.745Z,4.07
2022-11-17T19:51:34.099Z,3.60
2022-11-17T19:54:03.705Z,3.90
2022-11-17T19:56:32.081Z,3.53
2022-11-17T19:59:01.533Z,3.77
2022-11-17T20:01:31.100Z,3.80
2022-11-17T20:04:00.619Z,6.17
2022-11-17T20:06:30.686Z,5.63
2022-11-17T20:09:00.459Z,3.10
2022-11-17T20:11:30.056Z,3.80
2022-11-17T20:13:58.443Z,4.10
2022-11-17T20:16:28.429Z,4.73
2022-11-17T20:18:58.654Z,4.13
2022-11-17T20:21:27.787Z,6.43
2022-11-17T20:23:56.186Z,5.77
2022-11-17T20:26:27.705Z,4.90
2022-11-17T20:28:55.919Z,5.33
2022-11-17T20:31:26.057Z,8.50
2022-11-17T20:33:57.658Z,5.80
2022-11-17T20:36:26.050Z,5.40
2022-11-17T20:38:55.438Z,5.97
2022-11-17T20:41:25.477Z,6.67
2022-11-17T20:43:55.053Z,6.20
2022-11-17T20:46:24.108Z,6.27
2022-11-17T20:48:52.651Z,6.30
2022-11-17T20:51:21.896Z,6.10
2022-11-17T20:53:51.384Z,6.77
2022-11-17T20:56:20.404Z,7.93
2022-11-17T20:58:50.136Z,5.77
2022-11-17T21:01:20.689Z,7.27
2022-11-17T21:03:50.120Z,6.23
2022-11-17T21:06:18.912Z,7.40
2022-11-17T21:08:47.737Z,5.77
2022-11-17T21:11:32.025Z,6.30
2022-11-17T21:14:02.195Z,5.37
2022-11-17T21:16:30.545Z,5.90
2022-11-17T21:18:58.940Z,6.00
2022-11-17T21:21:27.128Z,4.43
2022-11-17T21:23:55.800Z,4.60
2022-11-17T21:26:24.699Z,4.40
2022-11-17T21:28:53.374Z,5.07
2022-11-17T21:31:24.656Z,3.80
2022-11-17T21:33:54.461Z,3.87
2022-11-17T21:36:24.148Z,3.30
2022-11-17T21:38:52.538Z,3.70
2022-11-17T21:41:22.992Z,3.57
2022-11-17T21:43:52.878Z,3.43
2022-11-17T21:46:24.037Z,4.27
2022-11-17T21:48:53.142Z,4.03
2022-11-17T21:51:23.053Z,5.50
2022-11-17T21:53:54.272Z,3.90
2022-11-17T21:56:25.704Z,4.10
2022-11-17T21:58:55.866Z,4.70
2022-11-17T22:01:25.940Z,4.10
2022-11-17T22:03:54.417Z,3.90
2022-11-17T22:06:25.664Z,4.23
2022-11-17T22:08:55.374Z,4.57
2022-11-17T22:11:36.858Z,3.20
2022-11-17T22:14:10.779Z,4.63
2022-11-17T22:16:41.456Z,4.63
2022-11-17T22:19:10.382Z,3.93
2022-11-17T22:21:39.646Z,4.63
2022-11-17T22:24:11.912Z,3.67
2022-11-17T22:26:41.402Z,4.10
2022-11-17T22:29:12.704Z,4.10
2022-11-17T22:31:42.695Z,4.43
2022-11-17T22:34:10.914Z,4.50
2022-11-17T22:36:39.048Z,4.50
2022-11-17T22:39:07.760Z,5.17
2022-11-17T22:41:36.227Z,4.30
2022-11-17T22:44:04.378Z,4.83
2022-11-17T22:46:32.437Z,4.80
2022-11-17T22:49:01.937Z,4.30
2022-11-17T22:51:47.553Z,4.33
2022-11-17T22:54:15.650Z,3.93
2022-11-17T22:56:44.019Z,5.70
2022-11-17T22:59:12.184Z,4.20
2022-11-17T23:01:40.214Z,5.87
2022-11-17T23:04:09.760Z,4.00
2022-11-17T23:06:37.802Z,5.50
2022-11-17T23:09:05.886Z,4.23
2022-11-17T23:11:38.332Z,4.37
2022-11-17T23:14:08.011Z,4.53
2022-11-17T23:16:36.850Z,4.93
2022-11-17T23:19:05.630Z,5.10
2022-11-17T23:21:35.072Z,4.00
2022-11-17T23:24:03.732Z,4.87
2022-11-17T23:26:32.844Z,4.60
2022-11-17T23:29:00.941Z,4.60
2022-11-17T23:31:29.005Z,4.60
2022-11-17T23:33:57.079Z,4.10
2022-11-17T23:36:25.135Z,4.23
2022-11-17T23:38:56.967Z,5.13
2022-11-17T23:41:25.195Z,5.20
2022-11-17T23:43:54.340Z,4.10
2022-11-17T23:46:25.824Z,4.67
2022-11-17T23:48:55.204Z,4.40
2022-11-17T23:51:26.054Z,4.57
2022-11-17T23:53:55.518Z,4.10
2022-11-17T23:56:24.132Z,4.13
2022-11-17T23:58:52.951Z,4.30
